Viola, Idaho
Current Conditions -  °F | °C
As of 8:53 AM on Monday 22 Dec 2014 (Local Time) from KPUW Reporting Station
Clear Clear  
Wind Chill: 30°   Ceiling: Unl
Heat Index: 38°   Visibility: 10mi
Dew Point: 35°   Wind: 13mph
Humidity: 89%   Direction: 260°W
Pressure: 30.15"   Gusts: NA
Location:  46.84°N, 117.02°W
Report Text: KPUW 221653Z AUTO 26011KT 10SM CLR 03/02 A3015 RMK AO2 SLP223 T00330017
Loading
Personal Weather Stations






























Interactive Weather Map New forecast layout! Learn more

10-Day Weather Forecast

Advertisements
Track Severe Weather on mobile